createdAt,value
2023-01-07T00:01:46.918Z,42.70
2023-01-07T00:04:17.781Z,47.70
2023-01-07T00:06:48.881Z,47.75
2023-01-07T00:09:18.513Z,44.95
2023-01-07T00:11:48.112Z,48.75
2023-01-07T00:14:17.857Z,43.28
2023-01-07T00:16:48.115Z,50.88
2023-01-07T00:19:18.752Z,46.37
2023-01-07T00:21:48.189Z,43.38
2023-01-07T00:24:18.536Z,41.68
2023-01-07T00:26:49.118Z,38.15
2023-01-07T00:29:19.928Z,38.15
2023-01-07T00:31:50.248Z,40.63
2023-01-07T00:34:21.344Z,39.83
2023-01-07T00:36:51.405Z,36.95
2023-01-07T00:39:22.077Z,32.73
2023-01-07T00:42:09.668Z,33.13
2023-01-07T00:44:39.090Z,28.73
2023-01-07T00:47:08.582Z,26.65
2023-01-07T00:49:38.508Z,29.32
2023-01-07T00:52:08.008Z,31.85
2023-01-07T00:54:37.436Z,37.55
2023-01-07T00:57:07.932Z,36.33
2023-01-07T00:59:37.549Z,37.90
2023-01-07T01:02:07.178Z,35.10
2023-01-07T01:04:36.897Z,40.53
2023-01-07T01:07:07.207Z,36.85
2023-01-07T01:09:36.759Z,30.90
2023-01-07T01:12:06.337Z,30.27
2023-01-07T01:14:35.758Z,26.82
2023-01-07T01:17:05.378Z,25.60
2023-01-07T01:19:34.795Z,27.32
2023-01-07T01:22:04.288Z,29.90
2023-01-07T01:24:33.737Z,24.30
2023-01-07T01:27:03.951Z,25.35
2023-01-07T01:29:33.438Z,28.70
2023-01-07T01:32:03.699Z,25.87
2023-01-07T01:34:33.193Z,29.55
2023-01-07T01:37:03.019Z,28.83
2023-01-07T01:39:34.024Z,26.10
2023-01-07T01:42:03.528Z,26.68
2023-01-07T01:44:53.071Z,29.15
2023-01-07T01:47:54.500Z,28.23
2023-01-07T01:50:29.072Z,29.92
2023-01-07T01:53:14.168Z,26.30
2023-01-07T01:55:48.656Z,26.25
2023-01-07T01:58:21.223Z,25.75
2023-01-07T02:00:51.257Z,27.27
2023-01-07T02:03:26.631Z,25.77
2023-01-07T02:05:56.361Z,24.40
2023-01-07T02:08:26.370Z,22.15
2023-01-07T02:11:06.813Z,18.27
2023-01-07T02:13:56.070Z,23.42
2023-01-07T02:16:36.129Z,19.85
2023-01-07T02:19:17.619Z,20.90
2023-01-07T02:22:02.469Z,16.15
2023-01-07T02:24:55.921Z,16.67
2023-01-07T02:27:31.707Z,17.05
2023-01-07T02:30:28.363Z,13.50
2023-01-07T02:33:19.034Z,16.32
2023-01-07T02:36:00.996Z,15.20
2023-01-07T02:38:59.436Z,16.30
2023-01-07T02:42:02.056Z,11.60
2023-01-07T02:44:38.073Z,13.85
2023-01-07T02:47:22.885Z,12.80
2023-01-07T02:49:54.418Z,10.93
2023-01-07T02:52:26.921Z,11.50
2023-01-07T02:58:02.981Z,11.33
2023-01-07T03:01:09.977Z,11.50
2023-01-07T03:03:55.665Z,9.78
2023-01-07T03:06:37.405Z,11.65
2023-01-07T03:09:12.673Z,10.85
2023-01-07T03:12:03.248Z,8.33
2023-01-07T03:14:41.097Z,8.88
2023-01-07T03:17:13.700Z,13.45
2023-01-07T03:19:46.185Z,10.25
2023-01-07T03:25:45.469Z,13.50
2023-01-07T03:28:18.067Z,11.97
2023-01-07T03:30:50.699Z,13.62
2023-01-07T03:33:39.730Z,13.10
2023-01-07T03:36:11.852Z,12.43
2023-01-07T03:38:45.292Z,11.83
2023-01-07T03:41:17.293Z,11.73
2023-01-07T03:43:54.135Z,13.20
2023-01-07T03:46:23.756Z,10.65
2023-01-07T03:48:53.326Z,10.63
2023-01-07T03:51:23.940Z,9.65
2023-01-07T03:53:53.845Z,9.57
2023-01-07T03:56:23.320Z,8.28
2023-01-07T03:58:53.172Z,11.00
2023-01-07T04:01:22.746Z,13.78
2023-01-07T04:03:52.561Z,12.63
2023-01-07T04:06:23.419Z,9.10
2023-01-07T04:08:54.106Z,10.23
2023-01-07T04:11:23.684Z,9.50
2023-01-07T04:14:12.982Z,10.38
2023-01-07T04:16:43.321Z,9.63
2023-01-07T04:19:13.818Z,9.45
2023-01-07T04:21:43.826Z,11.60
2023-01-07T04:24:15.567Z,9.47
2023-01-07T04:26:46.230Z,9.18
2023-01-07T04:29:15.788Z,11.68
2023-01-07T04:31:45.341Z,9.53
2023-01-07T04:34:14.925Z,13.80
2023-01-07T04:36:45.457Z,8.95
2023-01-07T04:39:15.540Z,8.98
2023-01-07T04:41:46.215Z,9.40
2023-01-07T04:44:17.438Z,11.38
2023-01-07T04:46:46.935Z,10.70
2023-01-07T04:49:18.572Z,9.60
2023-01-07T04:51:49.182Z,8.43
2023-01-07T04:54:20.184Z,10.28
2023-01-07T04:56:50.454Z,8.10
2023-01-07T04:59:21.322Z,9.03
2023-01-07T05:01:51.457Z,8.95
2023-01-07T05:04:21.034Z,7.15
2023-01-07T05:06:51.590Z,9.43
2023-01-07T05:09:23.921Z,9.70
2023-01-07T05:11:53.488Z,9.23
2023-01-07T05:14:23.057Z,7.30
2023-01-07T05:16:55.042Z,6.80
2023-01-07T05:19:25.304Z,7.22
2023-01-07T05:21:55.956Z,9.33
2023-01-07T05:24:25.441Z,6.90
2023-01-07T05:26:55.082Z,7.83
2023-01-07T05:29:25.691Z,8.38
2023-01-07T05:31:55.581Z,6.70
2023-01-07T05:34:25.078Z,9.18
2023-01-07T05:36:54.664Z,10.38
2023-01-07T05:39:25.016Z,7.80
2023-01-07T05:41:54.741Z,8.85
2023-01-07T05:44:26.260Z,7.97
2023-01-07T05:46:55.696Z,9.18
2023-01-07T05:49:25.099Z,6.72
2023-01-07T05:51:54.552Z,7.95
2023-01-07T05:54:23.991Z,8.88
2023-01-07T05:56:53.404Z,9.68
2023-01-07T05:59:23.132Z,10.60
2023-01-07T06:01:52.523Z,11.03
2023-01-07T06:04:22.060Z,8.35
2023-01-07T06:06:51.613Z,8.73
2023-01-07T06:09:22.416Z,11.10
2023-01-07T06:11:51.904Z,10.38
2023-01-07T06:14:22.177Z,12.30
2023-01-07T06:16:51.598Z,14.05
2023-01-07T06:19:22.682Z,13.03
2023-01-07T06:21:52.165Z,13.38
2023-01-07T06:24:21.588Z,13.43
2023-01-07T06:26:51.684Z,12.20
2023-01-07T06:29:21.116Z,14.00
2023-01-07T06:31:50.528Z,16.75
2023-01-07T06:34:20.259Z,12.95
2023-01-07T06:36:49.677Z,12.90
2023-01-07T06:39:19.115Z,16.12
2023-01-07T06:41:49.589Z,15.83
2023-01-07T06:44:19.380Z,15.63
2023-01-07T06:46:54.850Z,17.02
2023-01-07T06:49:24.300Z,13.18
2023-01-07T06:51:53.720Z,15.15
2023-01-07T06:54:23.473Z,16.60
2023-01-07T06:56:52.899Z,18.10
2023-01-07T06:59:22.344Z,17.48
2023-01-07T07:01:52.266Z,15.35
2023-01-07T07:04:32.139Z,18.30
2023-01-07T07:07:01.662Z,15.75
2023-01-07T07:09:31.184Z,14.38
2023-01-07T07:12:00.597Z,17.15
2023-01-07T07:14:30.069Z,12.25
2023-01-07T07:17:00.884Z,15.13
2023-01-07T07:19:30.736Z,14.58
2023-01-07T07:22:00.233Z,14.00
2023-01-07T07:24:29.656Z,16.85
2023-01-07T07:27:00.708Z,17.37
2023-01-07T07:29:30.276Z,21.77
2023-01-07T07:31:59.700Z,16.48
2023-01-07T07:34:29.783Z,15.68
2023-01-07T07:36:59.275Z,14.63
2023-01-07T07:39:30.191Z,18.85
2023-01-07T07:42:01.504Z,15.25
2023-01-07T07:44:31.849Z,13.00
2023-01-07T07:47:02.222Z,14.47
2023-01-07T07:49:31.818Z,13.58
2023-01-07T07:52:01.272Z,14.40
2023-01-07T07:54:30.696Z,17.30
2023-01-07T07:57:00.422Z,14.47
2023-01-07T07:59:29.905Z,16.30
2023-01-07T08:01:59.401Z,18.23
2023-01-07T08:04:29.591Z,18.52
2023-01-07T08:06:59.027Z,17.10
2023-01-07T08:09:28.468Z,22.73
2023-01-07T08:11:58.112Z,17.55
2023-01-07T08:14:27.538Z,17.45
2023-01-07T08:16:57.046Z,15.40
2023-01-07T08:19:26.555Z,18.50
2023-01-07T08:21:56.064Z,18.32
2023-01-07T08:24:25.491Z,17.52
2023-01-07T08:26:57.942Z,15.72
2023-01-07T08:31:55.942Z,17.57
2023-01-07T08:34:26.195Z,16.23
2023-01-07T08:36:55.628Z,17.87
2023-01-07T08:39:25.381Z,17.87
2023-01-07T08:41:56.192Z,18.12
2023-01-07T08:44:25.648Z,19.23
2023-01-07T08:46:55.342Z,19.32
2023-01-07T08:49:24.856Z,17.12
2023-01-07T08:51:54.291Z,19.73
2023-01-07T08:54:24.274Z,22.05
2023-01-07T08:56:54.752Z,21.17
2023-01-07T08:59:26.659Z,17.00
2023-01-07T09:01:56.302Z,21.07
2023-01-07T09:04:25.806Z,19.32
2023-01-07T09:06:55.337Z,17.20
2023-01-07T09:09:24.892Z,18.77
2023-01-07T09:11:54.332Z,15.65
2023-01-07T09:14:24.005Z,19.37
2023-01-07T09:16:53.505Z,15.85
2023-01-07T09:19:23.430Z,19.05
2023-01-07T09:21:53.701Z,23.27
2023-01-07T09:24:23.214Z,19.40
2023-01-07T09:26:52.619Z,21.42
2023-01-07T09:29:22.319Z,14.55
2023-01-07T09:31:51.849Z,18.62
2023-01-07T09:34:22.148Z,17.07
2023-01-07T09:36:51.699Z,15.97
2023-01-07T09:39:21.149Z,17.57
2023-01-07T09:42:02.825Z,15.38
2023-01-07T09:44:50.819Z,20.17
2023-01-07T09:47:23.915Z,20.95
2023-01-07T09:52:30.041Z,17.80
2023-01-07T09:55:08.290Z,12.63
2023-01-07T09:57:39.140Z,15.43
2023-01-07T10:00:18.320Z,17.80
2023-01-07T10:03:02.946Z,14.53
2023-01-07T10:05:44.468Z,17.15
2023-01-07T10:08:34.152Z,15.93
2023-01-07T10:11:15.728Z,18.10
2023-01-07T10:13:57.050Z,14.78
2023-01-07T10:16:49.964Z,16.65
2023-01-07T10:19:31.590Z,14.55
2023-01-07T10:22:07.851Z,12.17
2023-01-07T10:24:40.947Z,16.25
2023-01-07T10:27:16.616Z,15.30
2023-01-07T10:29:52.206Z,11.83
2023-01-07T10:32:25.256Z,15.60
2023-01-07T10:34:57.619Z,10.90
2023-01-07T10:40:15.102Z,15.90
2023-01-07T10:42:56.551Z,9.35
2023-01-07T10:45:35.628Z,11.33
2023-01-07T10:48:24.871Z,11.30
2023-01-07T10:51:15.637Z,10.80
2023-01-07T10:54:00.111Z,14.35
2023-01-07T10:56:37.058Z,9.00
2023-01-07T10:59:08.420Z,11.20
2023-01-07T11:01:43.608Z,8.65
2023-01-07T11:04:16.884Z,8.95
2023-01-07T11:06:55.354Z,8.65
2023-01-07T11:09:39.825Z,11.75
2023-01-07T11:12:29.013Z,12.47
2023-01-07T11:15:02.220Z,8.52
2023-01-07T11:17:43.598Z,9.23
2023-01-07T11:20:13.167Z,9.18
2023-01-07T11:22:42.604Z,10.08
2023-01-07T11:25:23.890Z,10.20
2023-01-07T11:27:53.630Z,8.83
2023-01-07T11:30:32.189Z,8.83
2023-01-07T11:33:07.404Z,12.73
2023-01-07T11:35:39.636Z,11.93
2023-01-07T11:38:30.014Z,7.10
2023-01-07T11:41:01.708Z,9.30
2023-01-07T11:43:37.333Z,11.35
2023-01-07T11:46:19.685Z,9.10
2023-01-07T11:48:53.035Z,5.80
2023-01-07T11:51:24.651Z,7.40
2023-01-07T11:53:57.158Z,8.83
2023-01-07T11:56:29.858Z,7.03
2023-01-07T11:59:23.239Z,10.08
2023-01-07T12:01:56.610Z,15.90
2023-01-07T12:04:34.577Z,6.78
2023-01-07T12:07:07.174Z,10.98
2023-01-07T12:09:41.795Z,9.13
2023-01-07T12:12:36.645Z,6.33
2023-01-07T12:15:24.291Z,9.30
2023-01-07T12:18:06.490Z,8.18
2023-01-07T12:20:58.812Z,9.63
2023-01-07T12:23:40.319Z,7.97
2023-01-07T12:26:24.575Z,10.58
2023-01-07T12:28:59.997Z,8.58
2023-01-07T12:31:47.732Z,10.10
2023-01-07T12:34:43.709Z,8.48
2023-01-07T12:37:24.830Z,9.03
2023-01-07T12:39:57.374Z,10.45
2023-01-07T12:42:30.755Z,7.78
2023-01-07T12:45:04.814Z,14.55
2023-01-07T12:47:40.594Z,10.53
2023-01-07T12:50:24.908Z,10.20
2023-01-07T12:53:15.235Z,8.98
2023-01-07T12:55:53.475Z,7.35
2023-01-07T12:58:44.506Z,7.65
2023-01-07T13:01:22.692Z,8.63
2023-01-07T13:03:55.291Z,9.95
2023-01-07T13:06:45.297Z,6.90
2023-01-07T13:09:23.784Z,8.58
2023-01-07T13:12:41.980Z,7.72
2023-01-07T13:14:57.771Z,9.10
2023-01-07T13:17:30.016Z,8.45
2023-01-07T13:19:59.736Z,8.43
2023-01-07T13:22:41.350Z,93.33
2023-01-07T13:25:26.558Z,8.98
2023-01-07T13:28:28.283Z,11.53
2023-01-07T13:31:06.447Z,7.12
2023-01-07T13:34:14.080Z,18.42
2023-01-07T13:37:18.012Z,18.90
2023-01-07T13:40:11.645Z,8.00
2023-01-07T13:42:46.722Z,5.97
2023-01-07T13:45:25.015Z,5.72
2023-01-07T13:48:06.171Z,7.28
2023-01-07T13:51:00.108Z,7.55
2023-01-07T13:53:35.196Z,8.60
2023-01-07T13:56:19.972Z,8.75
2023-01-07T13:58:55.875Z,11.43
2023-01-07T14:01:31.024Z,10.50
2023-01-07T14:04:10.159Z,9.68
2023-01-07T14:06:49.084Z,10.90
2023-01-07T14:09:25.664Z,8.78
2023-01-07T14:12:18.215Z,9.03
2023-01-07T14:15:05.880Z,9.08
2023-01-07T14:17:47.593Z,7.03
2023-01-07T14:20:41.187Z,9.93
2023-01-07T14:25:58.881Z,9.95
2023-01-07T14:28:42.598Z,8.23
2023-01-07T14:31:24.181Z,7.78
2023-01-07T14:34:21.364Z,7.92
2023-01-07T14:37:06.940Z,7.65
2023-01-07T14:39:45.634Z,11.33
2023-01-07T14:42:24.060Z,11.88
2023-01-07T14:44:54.119Z,9.80
2023-01-07T14:47:59.848Z,12.00
2023-01-07T14:50:53.919Z,10.40
2023-01-07T14:53:38.279Z,9.58
2023-01-07T14:56:36.757Z,5.92
2023-01-07T14:59:27.523Z,10.93
2023-01-07T15:02:19.633Z,7.95
2023-01-07T15:05:17.855Z,6.50
2023-01-07T15:07:54.721Z,7.55
2023-01-07T15:10:44.997Z,7.85
2023-01-07T15:13:35.739Z,11.85
2023-01-07T15:16:09.643Z,8.95
2023-01-07T15:18:56.513Z,9.60
2023-01-07T15:21:43.489Z,7.40
2023-01-07T15:24:30.300Z,5.80
2023-01-07T15:27:06.065Z,8.28
2023-01-07T15:29:47.390Z,8.45
2023-01-07T15:32:42.602Z,8.53
2023-01-07T15:35:27.277Z,12.30
2023-01-07T15:37:57.243Z,13.00
2023-01-07T15:40:28.941Z,9.90
2023-01-07T15:43:00.357Z,13.70
2023-01-07T15:45:30.056Z,7.03
2023-01-07T15:48:11.011Z,8.88
2023-01-07T15:50:43.677Z,9.93
2023-01-07T15:53:16.173Z,8.73
2023-01-07T15:56:00.545Z,6.67
2023-01-07T15:58:40.073Z,9.13
2023-01-07T16:01:12.747Z,8.55
2023-01-07T16:03:45.504Z,10.80
2023-01-07T16:06:36.089Z,10.60
2023-01-07T16:09:18.665Z,10.98
2023-01-07T16:11:49.437Z,9.73
2023-01-07T16:14:21.999Z,12.35
2023-01-07T16:17:06.664Z,9.80
2023-01-07T16:19:36.086Z,12.50
2023-01-07T16:22:06.062Z,7.60
2023-01-07T16:24:36.993Z,10.03
2023-01-07T16:27:08.520Z,12.68
2023-01-07T16:29:41.003Z,8.83
2023-01-07T16:32:12.215Z,9.95
2023-01-07T16:34:44.688Z,8.58
2023-01-07T16:39:48.090Z,8.63
2023-01-07T16:42:23.991Z,9.25
2023-01-07T16:44:59.295Z,6.12
2023-01-07T16:47:34.198Z,9.15
2023-01-07T16:50:18.635Z,8.45
2023-01-07T16:52:58.445Z,10.28
2023-01-07T16:55:50.877Z,6.95
2023-01-07T16:58:38.329Z,16.05
2023-01-07T17:01:09.708Z,12.50
2023-01-07T17:03:51.122Z,8.45
2023-01-07T17:08:56.712Z,14.63
2023-01-07T17:11:47.072Z,14.03
2023-01-07T17:14:38.669Z,10.23
2023-01-07T17:17:26.338Z,15.72
2023-01-07T17:20:18.881Z,10.93
2023-01-07T17:22:49.857Z,18.67
2023-01-07T17:25:30.248Z,14.95
2023-01-07T17:28:02.290Z,12.70
2023-01-07T17:30:37.959Z,17.17
2023-01-07T17:33:12.714Z,15.78
2023-01-07T17:35:47.291Z,14.55
2023-01-07T17:38:19.940Z,11.33
2023-01-07T17:40:50.335Z,11.80
2023-01-07T17:43:34.711Z,15.55
2023-01-07T17:46:14.639Z,14.80
2023-01-07T17:48:44.112Z,15.20
2023-01-07T17:51:24.589Z,12.33
2023-01-07T17:53:56.125Z,14.65
2023-01-07T17:56:26.947Z,14.27
2023-01-07T17:58:58.420Z,15.18
2023-01-07T18:01:28.142Z,15.18
2023-01-07T18:03:58.746Z,13.00
2023-01-07T18:06:29.997Z,12.98
2023-01-07T18:08:59.498Z,12.73
2023-01-07T18:11:49.954Z,12.23
2023-01-07T18:14:19.456Z,16.35
2023-01-07T18:16:49.508Z,9.50
2023-01-07T18:19:19.837Z,14.30
2023-01-07T18:21:49.416Z,14.40
2023-01-07T18:24:21.683Z,17.48
2023-01-07T18:26:52.690Z,10.03
2023-01-07T18:29:23.321Z,12.97
2023-01-07T18:31:53.024Z,12.58
2023-01-07T18:34:22.463Z,13.18
2023-01-07T18:36:53.699Z,11.88
2023-01-07T18:39:23.209Z,16.77
2023-01-07T18:41:54.740Z,10.30
2023-01-07T18:44:25.703Z,8.97
2023-01-07T18:46:55.982Z,11.68
2023-01-07T18:49:25.410Z,7.55
2023-01-07T18:51:55.421Z,14.30
2023-01-07T18:54:24.936Z,10.93
2023-01-07T18:56:54.371Z,13.85
2023-01-07T18:59:23.859Z,16.67
2023-01-07T19:01:55.205Z,17.00
2023-01-07T19:04:25.378Z,15.53
2023-01-07T19:06:56.758Z,19.12
2023-01-07T19:09:26.264Z,13.32
2023-01-07T19:12:01.528Z,19.15
2023-01-07T19:14:31.166Z,13.80
2023-01-07T19:17:02.363Z,21.52
2023-01-07T19:19:39.981Z,16.67
2023-01-07T19:22:03.192Z,13.10
2023-01-07T19:24:32.664Z,16.30
2023-01-07T19:27:02.249Z,16.57
2023-01-07T19:29:31.852Z,14.83
2023-01-07T19:32:05.689Z,16.35
2023-01-07T19:34:35.251Z,18.75
2023-01-07T19:37:04.687Z,12.35
2023-01-07T19:39:35.585Z,15.40
2023-01-07T19:42:05.224Z,19.75
2023-01-07T19:44:36.330Z,20.77
2023-01-07T19:47:06.003Z,21.33
2023-01-07T19:49:37.605Z,21.52
2023-01-07T19:52:07.108Z,20.82
2023-01-07T19:54:36.619Z,25.40
2023-01-07T19:57:06.472Z,17.77
2023-01-07T19:59:36.044Z,22.70
2023-01-07T20:02:19.187Z,20.05
2023-01-07T20:04:49.971Z,21.42
2023-01-07T20:07:23.774Z,23.77
2023-01-07T20:09:53.383Z,15.95
2023-01-07T20:12:23.392Z,16.97
2023-01-07T20:14:54.005Z,22.20
2023-01-07T20:17:23.595Z,16.73
2023-01-07T20:19:53.105Z,22.17
2023-01-07T20:22:22.527Z,16.12
2023-01-07T20:24:52.780Z,25.02
2023-01-07T20:27:22.201Z,17.87
2023-01-07T20:29:51.634Z,16.70
2023-01-07T20:32:22.251Z,16.32
2023-01-07T20:34:51.681Z,17.90
2023-01-07T20:37:21.315Z,19.32
2023-01-07T20:39:50.840Z,14.63
2023-01-07T20:42:20.424Z,17.27
2023-01-07T20:44:51.840Z,16.57
2023-01-07T20:47:21.891Z,25.56
2023-01-07T20:49:51.378Z,17.10
2023-01-07T20:52:20.823Z,25.25
2023-01-07T20:54:50.577Z,14.73
2023-01-07T20:57:20.032Z,18.67
2023-01-07T20:59:49.604Z,13.20
2023-01-07T21:02:20.895Z,14.38
2023-01-07T21:04:57.272Z,17.42
2023-01-07T21:07:27.410Z,18.48
2023-01-07T21:09:56.817Z,19.82
2023-01-07T21:15:02.317Z,18.30
2023-01-07T21:17:31.878Z,20.68
2023-01-07T21:20:01.957Z,17.55
2023-01-07T21:22:31.393Z,17.95
2023-01-07T21:25:00.813Z,19.62
2023-01-07T21:27:30.441Z,20.35
2023-01-07T21:29:59.901Z,18.60
2023-01-07T21:32:30.410Z,19.37
2023-01-07T21:35:00.240Z,16.75
2023-01-07T21:37:29.664Z,23.22
2023-01-07T21:39:59.097Z,20.68
2023-01-07T21:42:28.698Z,21.97
2023-01-07T21:44:58.198Z,19.25
2023-01-07T21:47:27.700Z,20.02
2023-01-07T21:49:57.350Z,14.55
2023-01-07T21:52:26.911Z,22.60
2023-01-07T21:54:56.988Z,20.85
2023-01-07T21:57:26.412Z,22.20
2023-01-07T21:59:55.841Z,26.10
2023-01-07T22:02:25.294Z,30.97
2023-01-07T22:04:54.745Z,18.55
2023-01-07T22:07:24.235Z,21.00
2023-01-07T22:09:53.988Z,19.77
2023-01-07T22:12:24.574Z,16.67
2023-01-07T22:14:54.319Z,25.57
2023-01-07T22:17:24.906Z,21.75
2023-01-07T22:19:54.377Z,22.98
2023-01-07T22:22:23.864Z,19.82
2023-01-07T22:24:53.302Z,19.65
2023-01-07T22:27:22.763Z,18.77
2023-01-07T22:29:52.205Z,19.37
2023-01-07T22:34:51.261Z,25.15
2023-01-07T22:37:24.465Z,16.52
2023-01-07T22:39:57.717Z,16.12
2023-01-07T22:42:30.648Z,17.40
2023-01-07T22:45:04.044Z,17.40
2023-01-07T22:47:37.158Z,21.17
2023-01-07T22:50:10.631Z,21.95
2023-01-07T22:52:40.270Z,19.55
2023-01-07T22:55:13.265Z,17.07
2023-01-07T22:57:43.531Z,21.90
2023-01-07T23:00:19.201Z,19.90
2023-01-07T23:02:48.668Z,22.40
2023-01-07T23:05:18.073Z,21.00
2023-01-07T23:07:48.133Z,14.47
2023-01-07T23:10:17.629Z,18.32
2023-01-07T23:15:15.952Z,16.90
2023-01-07T23:17:45.379Z,16.73
2023-01-07T23:20:14.803Z,23.22
2023-01-07T23:22:44.757Z,20.12
2023-01-07T23:25:14.267Z,24.75
2023-01-07T23:30:13.560Z,18.67
2023-01-07T23:32:42.994Z,21.02
2023-01-07T23:35:16.692Z,21.87
2023-01-07T23:37:46.115Z,20.50
2023-01-07T23:40:15.571Z,19.98
2023-01-07T23:42:48.840Z,16.05
2023-01-07T23:45:18.400Z,21.87
2023-01-07T23:47:47.829Z,20.95
2023-01-07T23:50:17.402Z,22.00
2023-01-07T23:52:46.823Z,23.50
2023-01-07T23:55:16.440Z,19.70
2023-01-07T23:57:46.129Z,19.85
